sensor_id;sensor_type;location;lat;lon;timestamp;pressure;altitude;pressure_sealevel;temperature;humidity
19520;BME280;9904;52.246;20.898;2024-02-15T00:32:38;100663.09;;;4.53;72.05
19520;BME280;9904;52.246;20.898;2024-02-15T00:35:06;100658.41;;;4.69;71.03
19520;BME280;9904;52.246;20.898;2024-02-15T00:37:37;100659.50;;;4.67;70.95
19520;BME280;9904;52.246;20.898;2024-02-15T00:40:04;100667.97;;;4.73;70.97
19520;BME280;9904;52.246;20.898;2024-02-15T00:42:31;100644.13;;;4.69;70.72
19520;BME280;9904;52.246;20.898;2024-02-15T00:44:58;100655.19;;;4.64;71.09
19520;BME280;9904;52.246;20.898;2024-02-15T00:47:24;100650.69;;;4.65;71.30
19520;BME280;9904;52.246;20.898;2024-02-15T00:49:51;100657.00;;;4.64;71.44
19520;BME280;9904;52.246;20.898;2024-02-15T00:52:18;100653.59;;;4.74;70.78
19520;BME280;9904;52.246;20.898;2024-02-15T00:54:48;100659.59;;;4.78;70.79
19520;BME280;9904;52.246;20.898;2024-02-15T00:57:15;100654.13;;;4.67;71.26
19520;BME280;9904;52.246;20.898;2024-02-15T00:59:41;100662.84;;;4.83;70.67
19520;BME280;9904;52.246;20.898;2024-02-15T01:02:08;100654.13;;;4.67;71.49
19520;BME280;9904;52.246;20.898;2024-02-15T01:04:34;100650.47;;;4.68;71.25
19520;BME280;9904;52.246;20.898;2024-02-15T01:07:01;100656.91;;;4.78;70.90
19520;BME280;9904;52.246;20.898;2024-02-15T01:09:29;100649.53;;;4.82;70.78
19520;BME280;9904;52.246;20.898;2024-02-15T01:11:56;100650.56;;;4.66;71.15
19520;BME280;9904;52.246;20.898;2024-02-15T01:14:22;100648.84;;;4.65;71.33
19520;BME280;9904;52.246;20.898;2024-02-15T01:16:49;100653.16;;;4.68;71.48
19520;BME280;9904;52.246;20.898;2024-02-15T01:19:16;100655.19;;;4.77;70.97
19520;BME280;9904;52.246;20.898;2024-02-15T01:21:43;100653.09;;;4.82;71.01
19520;BME280;9904;52.246;20.898;2024-02-15T01:24:11;100651.03;;;4.73;71.19
19520;BME280;9904;52.246;20.898;2024-02-15T01:26:38;100652.63;;;4.75;71.15
19520;BME280;9904;52.246;20.898;2024-02-15T01:29:04;100651.88;;;4.60;71.87
19520;BME280;9904;52.246;20.898;2024-02-15T01:31:31;100657.16;;;4.75;71.31
19520;BME280;9904;52.246;20.898;2024-02-15T01:33:57;100650.78;;;4.63;71.82
19520;BME280;9904;52.246;20.898;2024-02-15T01:36:24;100642.31;;;4.69;71.36
19520;BME280;9904;52.246;20.898;2024-02-15T01:38:51;100642.75;;;4.63;71.75
19520;BME280;9904;52.246;20.898;2024-02-15T01:41:17;100647.16;;;4.64;71.97
19520;BME280;9904;52.246;20.898;2024-02-15T01:43:44;100635.56;;;4.76;71.41
19520;BME280;9904;52.246;20.898;2024-02-15T01:46:12;100637.63;;;4.73;71.38
19520;BME280;9904;52.246;20.898;2024-02-15T01:48:40;100647.50;;;4.85;71.09
19520;BME280;9904;52.246;20.898;2024-02-15T01:51:09;100641.91;;;4.75;71.41
19520;BME280;9904;52.246;20.898;2024-02-15T01:53:38;100626.25;;;4.82;71.30
19520;BME280;9904;52.246;20.898;2024-02-15T01:56:07;100629.78;;;4.83;71.20
19520;BME280;9904;52.246;20.898;2024-02-15T01:58:34;100621.41;;;4.74;71.33
19520;BME280;9904;52.246;20.898;2024-02-15T02:01:02;100619.16;;;4.68;71.66
19520;BME280;9904;52.246;20.898;2024-02-15T02:03:29;100623.13;;;4.75;71.34
19520;BME280;9904;52.246;20.898;2024-02-15T02:05:56;100625.81;;;4.75;71.75
19520;BME280;9904;52.246;20.898;2024-02-15T02:08:23;100627.31;;;4.80;71.49
19520;BME280;9904;52.246;20.898;2024-02-15T02:10:50;100624.84;;;4.76;71.81
19520;BME280;9904;52.246;20.898;2024-02-15T02:13:17;100620.97;;;4.68;71.98
19520;BME280;9904;52.246;20.898;2024-02-15T02:15:43;100629.69;;;4.71;71.80
19520;BME280;9904;52.246;20.898;2024-02-15T02:18:10;100627.53;;;4.76;71.56
19520;BME280;9904;52.246;20.898;2024-02-15T02:20:37;100632.88;;;4.64;72.58
19520;BME280;9904;52.246;20.898;2024-02-15T02:23:14;100628.06;;;4.82;71.57
19520;BME280;9904;52.246;20.898;2024-02-15T02:25:42;100635.25;;;4.81;71.76
19520;BME280;9904;52.246;20.898;2024-02-15T02:28:11;100628.28;;;4.79;71.99
19520;BME280;9904;52.246;20.898;2024-02-15T02:30:39;100609.06;;;4.72;72.06
19520;BME280;9904;52.246;20.898;2024-02-15T02:33:14;100625.50;;;4.80;71.86
19520;BME280;9904;52.246;20.898;2024-02-15T02:35:46;100624.63;;;4.80;71.92
19520;BME280;9904;52.246;20.898;2024-02-15T02:38:15;100613.16;;;4.78;72.23
19520;BME280;9904;52.246;20.898;2024-02-15T02:40:42;100625.38;;;4.82;72.09
19520;BME280;9904;52.246;20.898;2024-02-15T02:43:08;100618.28;;;4.81;72.17
19520;BME280;9904;52.246;20.898;2024-02-15T02:45:36;100623.88;;;4.78;72.33
19520;BME280;9904;52.246;20.898;2024-02-15T02:48:03;100624.97;;;4.75;72.48
19520;BME280;9904;52.246;20.898;2024-02-15T02:50:31;100624.50;;;4.68;72.94
19520;BME280;9904;52.246;20.898;2024-02-15T02:52:58;100631.47;;;4.71;72.62
19520;BME280;9904;52.246;20.898;2024-02-15T02:55:26;100623.44;;;4.71;72.91
19520;BME280;9904;52.246;20.898;2024-02-15T02:57:54;100617.00;;;4.73;72.81
19520;BME280;9904;52.246;20.898;2024-02-15T03:00:21;100623.31;;;4.72;73.01
19520;BME280;9904;52.246;20.898;2024-02-15T03:02:49;100630.31;;;4.75;73.03
19520;BME280;9904;52.246;20.898;2024-02-15T03:05:16;100622.69;;;4.69;73.24
19520;BME280;9904;52.246;20.898;2024-02-15T03:07:43;100630.09;;;4.78;72.93
19520;BME280;9904;52.246;20.898;2024-02-15T03:10:11;100631.94;;;4.78;72.77
19520;BME280;9904;52.246;20.898;2024-02-15T03:12:41;100628.81;;;4.71;73.16
19520;BME280;9904;52.246;20.898;2024-02-15T03:15:15;100617.53;;;4.66;73.45
19520;BME280;9904;52.246;20.898;2024-02-15T03:17:47;100620.66;;;4.72;73.27
19520;BME280;9904;52.246;20.898;2024-02-15T03:20:14;100631.16;;;4.75;73.60
19520;BME280;9904;52.246;20.898;2024-02-15T03:22:59;100628.28;;;4.79;73.72
19520;BME280;9904;52.246;20.898;2024-02-15T03:25:27;100627.09;;;4.83;73.69
19520;BME280;9904;52.246;20.898;2024-02-15T03:27:58;100627.06;;;4.70;74.38
19520;BME280;9904;52.246;20.898;2024-02-15T03:30:26;100630.31;;;4.62;75.25
19520;BME280;9904;52.246;20.898;2024-02-15T03:32:53;100621.28;;;4.63;74.99
19520;BME280;9904;52.246;20.898;2024-02-15T03:35:22;100629.13;;;4.66;75.02
19520;BME280;9904;52.246;20.898;2024-02-15T03:37:50;100625.78;;;4.63;75.12
19520;BME280;9904;52.246;20.898;2024-02-15T03:40:20;100633.81;;;4.63;74.79
19520;BME280;9904;52.246;20.898;2024-02-15T03:42:47;100623.44;;;4.71;74.52
19520;BME280;9904;52.246;20.898;2024-02-15T03:45:14;100600.78;;;4.49;74.80
19520;BME280;9904;52.246;20.898;2024-02-15T03:47:41;100620.00;;;4.56;75.07
19520;BME280;9904;52.246;20.898;2024-02-15T03:50:08;100620.81;;;4.43;75.78
19520;BME280;9904;52.246;20.898;2024-02-15T03:52:41;100620.22;;;4.66;74.70
19520;BME280;9904;52.246;20.898;2024-02-15T03:55:08;100620.31;;;4.51;75.53
19520;BME280;9904;52.246;20.898;2024-02-15T03:57:37;100617.53;;;4.66;74.84
19520;BME280;9904;52.246;20.898;2024-02-15T04:00:08;100620.00;;;4.56;74.88
19520;BME280;9904;52.246;20.898;2024-02-15T04:02:38;100617.41;;;4.54;75.05
19520;BME280;9904;52.246;20.898;2024-02-15T04:05:08;100614.41;;;4.59;75.19
19520;BME280;9904;52.246;20.898;2024-02-15T04:07:37;100619.25;;;4.67;74.84
19520;BME280;9904;52.246;20.898;2024-02-15T04:10:05;100617.31;;;4.69;74.36
19520;BME280;9904;52.246;20.898;2024-02-15T04:12:33;100610.72;;;4.47;75.68
19520;BME280;9904;52.246;20.898;2024-02-15T04:14:59;100606.78;;;4.53;75.06
19520;BME280;9904;52.246;20.898;2024-02-15T04:17:40;100621.81;;;4.55;75.36
19520;BME280;9904;52.246;20.898;2024-02-15T04:20:08;100613.00;;;4.53;75.13
19520;BME280;9904;52.246;20.898;2024-02-15T04:22:36;100610.72;;;4.47;75.43
19520;BME280;9904;52.246;20.898;2024-02-15T04:25:08;100619.72;;;4.46;75.46
19520;BME280;9904;52.246;20.898;2024-02-15T04:27:38;100620.84;;;4.56;75.00
19520;BME280;9904;52.246;20.898;2024-02-15T04:30:06;100627.59;;;4.49;75.42
19520;BME280;9904;52.246;20.898;2024-02-15T04:32:35;100621.59;;;4.58;75.09
19520;BME280;9904;52.246;20.898;2024-02-15T04:35:03;100626.41;;;4.53;75.36
19520;BME280;9904;52.246;20.898;2024-02-15T04:37:30;100622.38;;;4.60;74.88
19520;BME280;9904;52.246;20.898;2024-02-15T04:39:58;100615.25;;;4.47;75.37
19520;BME280;9904;52.246;20.898;2024-02-15T04:42:33;100632.34;;;4.58;75.12
19520;BME280;9904;52.246;20.898;2024-02-15T04:45:01;100619.78;;;4.59;75.08
19520;BME280;9904;52.246;20.898;2024-02-15T04:47:28;100618.03;;;4.45;75.72
19520;BME280;9904;52.246;20.898;2024-02-15T04:49:56;100618.03;;;4.45;75.76
19520;BME280;9904;52.246;20.898;2024-02-15T04:52:23;100619.13;;;4.55;75.22
19520;BME280;9904;52.246;20.898;2024-02-15T04:54:50;100619.19;;;4.41;75.99
19520;BME280;9904;52.246;20.898;2024-02-15T04:57:17;100616.66;;;4.52;75.34
19520;BME280;9904;52.246;20.898;2024-02-15T04:59:44;100623.47;;;4.43;75.75
19520;BME280;9904;52.246;20.898;2024-02-15T05:02:14;100629.75;;;4.57;75.18
19520;BME280;9904;52.246;20.898;2024-02-15T05:04:40;100630.59;;;4.57;75.20
19520;BME280;9904;52.246;20.898;2024-02-15T05:07:10;100626.19;;;4.56;75.06
19520;BME280;9904;52.246;20.898;2024-02-15T05:09:37;100617.50;;;4.53;75.25
19520;BME280;9904;52.246;20.898;2024-02-15T05:12:04;100623.31;;;4.59;74.89
19520;BME280;9904;52.246;20.898;2024-02-15T05:14:32;100626.09;;;4.58;74.94
19520;BME280;9904;52.246;20.898;2024-02-15T05:16:59;100627.47;;;4.51;75.46
19520;BME280;9904;52.246;20.898;2024-02-15T05:19:27;100623.63;;;4.55;75.17
19520;BME280;9904;52.246;20.898;2024-02-15T05:21:54;100624.28;;;4.58;74.94
19520;BME280;9904;52.246;20.898;2024-02-15T05:24:21;100638.34;;;4.62;75.19
19520;BME280;9904;52.246;20.898;2024-02-15T05:26:48;100625.34;;;4.56;75.38
19520;BME280;9904;52.246;20.898;2024-02-15T05:29:16;100634.25;;;4.56;75.53
19520;BME280;9904;52.246;20.898;2024-02-15T05:31:43;100637.47;;;4.62;75.62
19520;BME280;9904;52.246;20.898;2024-02-15T05:34:11;100637.47;;;4.62;75.64
19520;BME280;9904;52.246;20.898;2024-02-15T05:36:39;100639.94;;;4.65;75.56
19520;BME280;9904;52.246;20.898;2024-02-15T05:39:06;100640.78;;;4.65;75.56
19520;BME280;9904;52.246;20.898;2024-02-15T05:41:34;100634.06;;;4.59;76.34
19520;BME280;9904;52.246;20.898;2024-02-15T05:44:01;100646.06;;;4.67;75.89
19520;BME280;9904;52.246;20.898;2024-02-15T05:46:31;100633.16;;;4.59;76.32
19520;BME280;9904;52.246;20.898;2024-02-15T05:48:57;100640.38;;;4.58;77.17
19520;BME280;9904;52.246;20.898;2024-02-15T05:51:24;100644.31;;;4.53;77.75
19520;BME280;9904;52.246;20.898;2024-02-15T05:53:51;100641.00;;;4.49;78.26
19520;BME280;9904;52.246;20.898;2024-02-15T05:56:19;100651.41;;;4.54;78.71
19520;BME280;9904;52.246;20.898;2024-02-15T05:58:46;100658.13;;;4.47;80.04
19520;BME280;9904;52.246;20.898;2024-02-15T06:01:13;100655.09;;;4.38;81.59
19520;BME280;9904;52.246;20.898;2024-02-15T06:03:40;100644.19;;;4.41;82.23
19520;BME280;9904;52.246;20.898;2024-02-15T06:06:11;100647.25;;;4.35;82.82
19520;BME280;9904;52.246;20.898;2024-02-15T06:08:38;100659.88;;;4.48;82.93
19520;BME280;9904;52.246;20.898;2024-02-15T06:11:04;100653.75;;;4.46;83.34
19520;BME280;9904;52.246;20.898;2024-02-15T06:13:32;100654.56;;;4.33;84.71
19520;BME280;9904;52.246;20.898;2024-02-15T06:15:58;100658.97;;;4.34;85.66
19520;BME280;9904;52.246;20.898;2024-02-15T06:18:27;100656.13;;;4.23;87.25
19520;BME280;9904;52.246;20.898;2024-02-15T06:20:56;100661.63;;;4.07;89.07
19520;BME280;9904;52.246;20.898;2024-02-15T06:23:28;100659.81;;;4.07;89.91
19520;BME280;9904;52.246;20.898;2024-02-15T06:25:56;100664.22;;;4.08;90.62
19520;BME280;9904;52.246;20.898;2024-02-15T06:28:27;100654.34;;;4.09;90.81
19520;BME280;9904;52.246;20.898;2024-02-15T06:31:13;100671.69;;;4.03;92.19
19520;BME280;9904;52.246;20.898;2024-02-15T06:33:58;100662.66;;;4.04;92.33
19520;BME280;9904;52.246;20.898;2024-02-15T06:36:48;100660.00;;;4.04;93.33
19520;BME280;9904;52.246;20.898;2024-02-15T06:39:34;100661.81;;;4.04;94.22
19520;BME280;9904;52.246;20.898;2024-02-15T06:42:16;100671.78;;;4.02;95.02
19520;BME280;9904;52.246;20.898;2024-02-15T06:44:47;100668.91;;;4.05;95.83
19520;BME280;9904;52.246;20.898;2024-02-15T06:47:15;100666.41;;;4.02;96.16
19520;BME280;9904;52.246;20.898;2024-02-15T06:49:45;100668.44;;;3.98;97.43
19520;BME280;9904;52.246;20.898;2024-02-15T06:52:12;100662.13;;;3.99;98.11
19520;BME280;9904;52.246;20.898;2024-02-15T06:54:41;100670.84;;;3.88;99.66
19520;BME280;9904;52.246;20.898;2024-02-15T06:57:08;100665.09;;;3.94;99.86
19520;BME280;9904;52.246;20.898;2024-02-15T06:59:36;100680.31;;;3.94;99.71
19520;BME280;9904;52.246;20.898;2024-02-15T07:02:06;100679.75;;;3.89;100.00
19520;BME280;9904;52.246;20.898;2024-02-15T07:04:34;100687.22;;;3.84;100.00
19520;BME280;9904;52.246;20.898;2024-02-15T07:07:01;100687.50;;;3.79;100.00
19520;BME280;9904;52.246;20.898;2024-02-15T07:09:29;100686.25;;;3.85;100.00
19520;BME280;9904;52.246;20.898;2024-02-15T07:11:56;100683.09;;;3.78;100.00
19520;BME280;9904;52.246;20.898;2024-02-15T07:14:25;100683.09;;;3.78;100.00
19520;BME280;9904;52.246;20.898;2024-02-15T07:16:54;100684.81;;;3.79;100.00
19520;BME280;9904;52.246;20.898;2024-02-15T07:19:24;100682.91;;;3.81;100.00
19520;BME280;9904;52.246;20.898;2024-02-15T07:21:51;100691.50;;;3.86;100.00
19520;BME280;9904;52.246;20.898;2024-02-15T07:24:18;100684.63;;;3.82;100.00
19520;BME280;9904;52.246;20.898;2024-02-15T07:26:45;100690.00;;;3.82;100.00
19520;BME280;9904;52.246;20.898;2024-02-15T07:29:12;100695.63;;;3.92;100.00
19520;BME280;9904;52.246;20.898;2024-02-15T07:31:42;100694.09;;;3.88;100.00
19520;BME280;9904;52.246;20.898;2024-02-15T07:34:08;100696.34;;;4.08;100.00
19520;BME280;9904;52.246;20.898;2024-02-15T07:36:36;100692.53;;;3.98;100.00
19520;BME280;9904;52.246;20.898;2024-02-15T07:39:02;100692.94;;;3.92;100.00
19520;BME280;9904;52.246;20.898;2024-02-15T07:41:30;100695.44;;;3.95;100.00
19520;BME280;9904;52.246;20.898;2024-02-15T07:44:00;100685.00;;;3.90;100.00
19520;BME280;9904;52.246;20.898;2024-02-15T07:46:27;100685.19;;;3.87;100.00
19520;BME280;9904;52.246;20.898;2024-02-15T07:48:54;100679.72;;;4.03;100.00
19520;BME280;9904;52.246;20.898;2024-02-15T07:51:22;100679.41;;;4.08;100.00
19520;BME280;9904;52.246;20.898;2024-02-15T07:53:50;100686.13;;;4.01;100.00
19520;BME280;9904;52.246;20.898;2024-02-15T07:56:17;100689.69;;;3.87;100.00
19520;BME280;9904;52.246;20.898;2024-02-15T07:58:46;100681.78;;;3.85;100.00
19520;BME280;9904;52.246;20.898;2024-02-15T08:01:19;100681.75;;;4.00;100.00
19520;BME280;9904;52.246;20.898;2024-02-15T08:03:51;100681.94;;;3.96;100.00
19520;BME280;9904;52.246;20.898;2024-02-15T08:06:21;100683.56;;;3.85;100.00
19520;BME280;9904;52.246;20.898;2024-02-15T08:08:50;100688.66;;;3.89;100.00
19520;BME280;9904;52.246;20.898;2024-02-15T08:11:18;100689.56;;;4.03;100.00
19520;BME280;9904;52.246;20.898;2024-02-15T08:13:46;100693.41;;;3.99;100.00
19520;BME280;9904;52.246;20.898;2024-02-15T08:16:18;100684.50;;;3.98;100.00
19520;BME280;9904;52.246;20.898;2024-02-15T08:18:45;100688.25;;;3.95;100.00
19520;BME280;9904;52.246;20.898;2024-02-15T08:21:15;100682.63;;;3.86;100.00
19520;BME280;9904;52.246;20.898;2024-02-15T08:23:42;100687.13;;;3.85;100.00
19520;BME280;9904;52.246;20.898;2024-02-15T08:26:09;100684.50;;;3.98;100.00
19520;BME280;9904;52.246;20.898;2024-02-15T08:28:40;100688.34;;;3.94;100.00
19520;BME280;9904;52.246;20.898;2024-02-15T08:31:06;100689.16;;;4.09;100.00
19520;BME280;9904;52.246;20.898;2024-02-15T08:33:34;100688.63;;;4.04;100.00
19520;BME280;9904;52.246;20.898;2024-02-15T08:36:03;100686.78;;;4.04;100.00
19520;BME280;9904;52.246;20.898;2024-02-15T08:38:30;100684.38;;;4.14;100.00
19520;BME280;9904;52.246;20.898;2024-02-15T08:40:57;100689.94;;;4.11;100.00
19520;BME280;9904;52.246;20.898;2024-02-15T08:43:23;100698.03;;;4.24;100.00
19520;BME280;9904;52.246;20.898;2024-02-15T08:45:50;100693.94;;;4.18;100.00
19520;BME280;9904;52.246;20.898;2024-02-15T08:48:17;100700.63;;;4.25;100.00
19520;BME280;9904;52.246;20.898;2024-02-15T08:50:44;100709.25;;;4.43;100.00
19520;BME280;9904;52.246;20.898;2024-02-15T08:53:12;100707.34;;;4.46;100.00
19520;BME280;9904;52.246;20.898;2024-02-15T08:55:41;100709.06;;;4.47;100.00
19520;BME280;9904;52.246;20.898;2024-02-15T08:58:08;100709.19;;;4.45;100.00
19520;BME280;9904;52.246;20.898;2024-02-15T09:00:36;100707.69;;;4.54;100.00
19520;BME280;9904;52.246;20.898;2024-02-15T09:03:07;100713.47;;;4.48;100.00
19520;BME280;9904;52.246;20.898;2024-02-15T09:05:34;100720.47;;;4.50;100.00
19520;BME280;9904;52.246;20.898;2024-02-15T09:08:01;100715.09;;;4.50;100.00
19520;BME280;9904;52.246;20.898;2024-02-15T09:10:29;100719.94;;;4.58;100.00
19520;BME280;9904;52.246;20.898;2024-02-15T09:12:56;100717.47;;;4.55;100.00
19520;BME280;9904;52.246;20.898;2024-02-15T09:15:23;100713.91;;;4.54;100.00
19520;BME280;9904;52.246;20.898;2024-02-15T09:17:50;100719.09;;;4.57;100.00
19520;BME280;9904;52.246;20.898;2024-02-15T09:20:17;100709.84;;;4.62;100.00
19520;BME280;9904;52.246;20.898;2024-02-15T09:22:49;100717.38;;;4.56;100.00
19520;BME280;9904;52.246;20.898;2024-02-15T09:25:17;100722.22;;;4.64;100.00
19520;BME280;9904;52.246;20.898;2024-02-15T09:27:44;100719.78;;;4.74;100.00
19520;BME280;9904;52.246;20.898;2024-02-15T09:30:12;100720.09;;;4.69;100.00
19520;BME280;9904;52.246;20.898;2024-02-15T09:32:40;100716.22;;;4.73;100.00
19520;BME280;9904;52.246;20.898;2024-02-15T09:35:08;100717.09;;;4.74;100.00
19520;BME280;9904;52.246;20.898;2024-02-15T09:37:42;100731.91;;;4.80;100.00
19520;BME280;9904;52.246;20.898;2024-02-15T09:40:12;100733.91;;;4.90;100.00
19520;BME280;9904;52.246;20.898;2024-02-15T09:42:39;100730.44;;;4.88;100.00
19520;BME280;9904;52.246;20.898;2024-02-15T09:45:08;100725.13;;;5.01;100.00
19520;BME280;9904;52.246;20.898;2024-02-15T09:47:39;100726.16;;;4.99;100.00
19520;BME280;9904;52.246;20.898;2024-02-15T09:50:11;100727.38;;;5.07;100.00
19520;BME280;9904;52.246;20.898;2024-02-15T09:52:44;100726.09;;;5.13;100.00
19520;BME280;9904;52.246;20.898;2024-02-15T09:55:11;100715.13;;;5.16;100.00
19520;BME280;9904;52.246;20.898;2024-02-15T09:57:43;100717.81;;;5.16;100.00
19520;BME280;9904;52.246;20.898;2024-02-15T10:00:11;100720.75;;;5.13;100.00
19520;BME280;9904;52.246;20.898;2024-02-15T10:02:49;100720.31;;;5.19;100.00
19520;BME280;9904;52.246;20.898;2024-02-15T10:05:19;100721.28;;;5.18;100.00
19520;BME280;9904;52.246;20.898;2024-02-15T10:07:47;100719.69;;;5.29;100.00
19520;BME280;9904;52.246;20.898;2024-02-15T10:10:18;100713.88;;;5.22;100.00
19520;BME280;9904;52.246;20.898;2024-02-15T10:12:53;100717.63;;;5.19;100.00
19520;BME280;9904;52.246;20.898;2024-02-15T10:15:38;100720.53;;;5.29;100.00
19520;BME280;9904;52.246;20.898;2024-02-15T10:18:08;100709.59;;;5.32;100.00
19520;BME280;9904;52.246;20.898;2024-02-15T10:20:38;100715.06;;;5.44;100.00
19520;BME280;9904;52.246;20.898;2024-02-15T10:23:13;100717.09;;;5.40;100.00
19520;BME280;9904;52.246;20.898;2024-02-15T10:25:40;100712.38;;;5.44;100.00
19520;BME280;9904;52.246;20.898;2024-02-15T10:28:11;100708.09;;;5.54;100.00
19520;BME280;9904;52.246;20.898;2024-02-15T10:30:40;100705.81;;;5.61;100.00
19520;BME280;9904;52.246;20.898;2024-02-15T10:33:26;100712.69;;;5.65;100.00
19520;BME280;9904;52.246;20.898;2024-02-15T10:36:09;100704.06;;;5.60;100.00
19520;BME280;9904;52.246;20.898;2024-02-15T10:38:37;100705.59;;;5.64;100.00
19520;BME280;9904;52.246;20.898;2024-02-15T10:41:05;100696.91;;;5.60;100.00
19520;BME280;9904;52.246;20.898;2024-02-15T10:43:35;100701.19;;;5.76;100.00
19520;BME280;9904;52.246;20.898;2024-02-15T10:46:04;100698.81;;;5.84;100.00
19520;BME280;9904;52.246;20.898;2024-02-15T10:48:32;100692.78;;;5.80;100.00
19520;BME280;9904;52.246;20.898;2024-02-15T10:51:02;100690.63;;;5.85;100.00
19520;BME280;9904;52.246;20.898;2024-02-15T10:53:31;100695.47;;;5.80;100.00
19520;BME280;9904;52.246;20.898;2024-02-15T10:56:12;100697.28;;;5.93;100.00
19520;BME280;9904;52.246;20.898;2024-02-15T10:58:50;100696.31;;;5.94;100.00
19520;BME280;9904;52.246;20.898;2024-02-15T11:01:22;100696.72;;;6.00;100.00
19520;BME280;9904;52.246;20.898;2024-02-15T11:03:59;100703.16;;;5.98;100.00
19520;BME280;9904;52.246;20.898;2024-02-15T11:06:27;100701.34;;;5.98;100.00
19520;BME280;9904;52.246;20.898;2024-02-15T11:08:56;100699.09;;;6.05;100.00
19520;BME280;9904;52.246;20.898;2024-02-15T11:11:24;100698.47;;;5.89;100.00
19520;BME280;9904;52.246;20.898;2024-02-15T11:14:31;100694.91;;;5.88;100.00
19520;BME280;9904;52.246;20.898;2024-02-15T11:17:01;100696.94;;;5.97;100.00
19520;BME280;9904;52.246;20.898;2024-02-15T11:22:09;100693.84;;;5.91;100.00
19520;BME280;9904;52.246;20.898;2024-02-15T11:24:45;100688.88;;;5.97;100.00
19520;BME280;9904;52.246;20.898;2024-02-15T11:27:24;100690.50;;;5.87;100.00
19520;BME280;9904;52.246;20.898;2024-02-15T11:29:55;100690.59;;;5.98;100.00
19520;BME280;9904;52.246;20.898;2024-02-15T11:32:43;100687.72;;;5.89;100.00
19520;BME280;9904;52.246;20.898;2024-02-15T11:35:19;100687.63;;;6.03;100.00
19520;BME280;9904;52.246;20.898;2024-02-15T11:40:21;100671.53;;;6.14;100.00
19520;BME280;9904;52.246;20.898;2024-02-15T11:42:56;100675.03;;;6.28;100.00
19520;BME280;9904;52.246;20.898;2024-02-15T11:45:26;100668.00;;;6.38;100.00
19520;BME280;9904;52.246;20.898;2024-02-15T11:47:59;100668.13;;;6.37;100.00
19520;BME280;9904;52.246;20.898;2024-02-15T11:50:28;100670.19;;;6.33;100.00
19520;BME280;9904;52.246;20.898;2024-02-15T11:53:02;100664.97;;;6.43;100.00
19520;BME280;9904;52.246;20.898;2024-02-15T12:08:49;100649.88;;;6.53;100.00
19520;BME280;9904;52.246;20.898;2024-02-15T12:11:35;100649.69;;;6.68;100.00
19520;BME280;9904;52.246;20.898;2024-02-15T12:14:21;100656.22;;;6.88;100.00
19520;BME280;9904;52.246;20.898;2024-02-15T12:17:08;100652.44;;;6.90;100.00
19520;BME280;9904;52.246;20.898;2024-02-15T12:19:54;100658.94;;;6.99;100.00
19520;BME280;9904;52.246;20.898;2024-02-15T12:22:39;100659.22;;;7.07;100.00
19520;BME280;9904;52.246;20.898;2024-02-15T12:25:07;100656.88;;;7.03;100.00
19520;BME280;9904;52.246;20.898;2024-02-15T12:27:44;100664.13;;;7.13;100.00
19520;BME280;9904;52.246;20.898;2024-02-15T12:30:15;100668.06;;;7.32;100.00
19520;BME280;9904;52.246;20.898;2024-02-15T12:32:42;100655.19;;;7.24;100.00
19520;BME280;9904;52.246;20.898;2024-02-15T15:38:17;100637.56;;;7.77;90.99
19520;BME280;9904;52.246;20.898;2024-02-15T15:40:44;100639.50;;;7.75;90.95
19520;BME280;9904;52.246;20.898;2024-02-15T15:43:12;100642.94;;;7.77;90.87
19520;BME280;9904;52.246;20.898;2024-02-15T15:45:40;100640.72;;;7.82;89.03
19520;BME280;9904;52.246;20.898;2024-02-15T15:48:07;100642.47;;;7.72;89.62
19520;BME280;9904;52.246;20.898;2024-02-15T15:50:33;100647.13;;;7.81;89.88
19520;BME280;9904;52.246;20.898;2024-02-15T15:53:05;100651.03;;;7.77;89.62
19520;BME280;9904;52.246;20.898;2024-02-15T15:55:32;100645.16;;;7.72;89.59
19520;BME280;9904;52.246;20.898;2024-02-15T15:57:59;100649.44;;;7.63;90.33
19520;BME280;9904;52.246;20.898;2024-02-15T16:00:25;100647.25;;;7.68;89.90
19520;BME280;9904;52.246;20.898;2024-02-15T16:02:52;100650.56;;;7.60;89.51
19520;BME280;9904;52.246;20.898;2024-02-15T16:05:22;100644.06;;;7.63;89.27
19520;BME280;9904;52.246;20.898;2024-02-15T16:07:48;100658.03;;;7.57;89.24
19520;BME280;9904;52.246;20.898;2024-02-15T16:10:16;100663.31;;;7.58;88.64
19520;BME280;9904;52.246;20.898;2024-02-15T16:12:44;100658.78;;;7.48;89.46
19520;BME280;9904;52.246;20.898;2024-02-15T16:15:11;100662.06;;;7.40;89.34
19520;BME280;9904;52.246;20.898;2024-02-15T16:17:45;100673.72;;;7.52;88.82
19520;BME280;9904;52.246;20.898;2024-02-15T16:20:12;100675.16;;;7.44;89.03
19520;BME280;9904;52.246;20.898;2024-02-15T16:22:42;100671.50;;;7.45;89.09
19520;BME280;9904;52.246;20.898;2024-02-15T16:25:09;100666.97;;;7.46;88.88
19520;BME280;9904;52.246;20.898;2024-02-15T16:27:39;100672.13;;;7.49;89.42
19520;BME280;9904;52.246;20.898;2024-02-15T16:30:07;100674.44;;;7.42;89.25
19520;BME280;9904;52.246;20.898;2024-02-15T16:32:42;100677.00;;;7.44;89.05
19520;BME280;9904;52.246;20.898;2024-02-15T16:35:11;100667.56;;;7.50;89.04
19520;BME280;9904;52.246;20.898;2024-02-15T16:37:40;100668.19;;;7.42;88.67
19520;BME280;9904;52.246;20.898;2024-02-15T16:40:12;100666.72;;;7.26;89.51
19520;BME280;9904;52.246;20.898;2024-02-15T16:42:43;100669.63;;;7.23;90.13
19520;BME280;9904;52.246;20.898;2024-02-15T16:45:14;100674.03;;;7.24;90.04
19520;BME280;9904;52.246;20.898;2024-02-15T16:47:42;100681.38;;;7.22;89.69
19520;BME280;9904;52.246;20.898;2024-02-15T16:50:16;100690.06;;;7.26;89.29
19520;BME280;9904;52.246;20.898;2024-02-15T16:52:43;100688.13;;;7.28;88.77
19520;BME280;9904;52.246;20.898;2024-02-15T16:55:11;100693.88;;;7.23;89.42
19520;BME280;9904;52.246;20.898;2024-02-15T16:57:38;100687.38;;;7.14;89.38
19520;BME280;9904;52.246;20.898;2024-02-15T17:00:06;100693.16;;;7.21;88.87